Time;durP1;ratioP1;P1;durP2;ratioP2;P2;SDS_P1;SDS_P2;PMS_P1;PMS_P2;Temp;Humidity;BMP_temperature;BMP_pressure;BME280_temperature;BME280_humidity;BME280_pressure;Samples;Min_cycle;Max_cycle;Signal;HPM_P1;HPM_P2
2023/05/07 16:41:29;;;;;;;9.90;8.90;;;17.40;99.90;;;;;;4961186;28;20456;-71
2023/05/07 16:43:57;;;;;;;10.70;9.80;;;17.30;99.90;;;;;;4956101;28;20435;-70
2023/05/07 16:46:25;;;;;;;9.83;9.00;;;17.30;99.90;;;;;;4956050;29;20437;-70
2023/05/07 16:48:53;;;;;;;9.20;8.40;;;17.30;99.90;;;;;;4955721;28;20907;-70
2023/05/07 16:51:23;;;;;;;10.10;9.10;;;17.30;99.90;;;;;;4955811;28;20442;-70
2023/05/07 16:53:51;;;;;;;12.00;9.10;;;17.30;99.90;;;;;;4955648;28;20439;-71
2023/05/07 16:56:19;;;;;;;9.87;8.97;;;17.30;99.90;;;;;;4955756;29;20429;-70
2023/05/07 16:58:49;;;;;;;10.63;9.60;;;17.40;99.90;;;;;;4955894;29;20439;-70
2023/05/07 17:01:17;;;;;;;10.63;8.30;;;17.50;99.90;;;;;;4955574;28;20413;-70
2023/05/07 17:03:45;;;;;;;8.90;8.10;;;17.80;99.90;;;;;;4955834;28;20774;-71
2023/05/07 17:06:15;;;;;;;8.40;7.70;;;18.00;99.90;;;;;;4955437;29;20519;-70
2023/05/07 17:08:43;;;;;;;9.17;8.23;;;18.20;99.90;;;;;;4955805;29;20417;-70
2023/05/07 17:11:11;;;;;;;7.80;7.10;;;18.50;99.90;;;;;;4955752;29;20446;-70
2023/05/07 17:13:39;;;;;;;7.70;7.10;;;18.80;99.90;;;;;;4955180;29;20926;-72
2023/05/07 17:16:09;;;;;;;7.90;7.10;;;18.90;99.90;;;;;;4955934;29;20498;-70
2023/05/07 17:18:37;;;;;;;6.70;6.10;;;19.00;99.90;;;;;;4955634;28;20435;-71
2023/05/07 17:21:05;;;;;;;8.57;7.77;;;19.10;99.90;;;;;;4959522;29;20417;-71
2023/05/07 17:23:33;;;;;;;8.43;7.63;;;19.30;99.90;;;;;;4959490;29;20434;-71
2023/05/07 17:26:01;;;;;;;8.07;7.27;;;19.40;99.90;;;;;;4959103;29;20481;-71
2023/05/07 17:28:30;;;;;;;8.00;7.30;;;19.40;99.90;;;;;;4959437;29;20439;-70
2023/05/07 17:30:58;;;;;;;7.60;6.90;;;19.70;99.90;;;;;;4957830;29;20964;-70
2023/05/07 17:33:28;;;;;;;7.13;6.53;;;20.20;99.90;;;;;;4959046;29;20439;-70
2023/05/07 17:35:56;;;;;;;7.53;6.60;;;20.80;99.90;;;;;;4959044;28;20457;-70
2023/05/07 17:38:24;;;;;;;15.43;12.90;;;21.60;99.90;;;;;;4958919;29;20443;-70
2023/05/07 17:40:52;;;;;;;7.80;7.10;;;22.30;99.90;;;;;;4959065;29;20995;-71
2023/05/07 17:43:22;;;;;;;7.30;6.60;;;22.70;99.90;;;;;;4958914;29;20493;-71
2023/05/07 17:45:50;;;;;;;7.50;6.70;;;23.40;99.90;;;;;;4958759;29;20537;-71
2023/05/07 17:48:18;;;;;;;7.63;6.93;;;23.70;99.90;;;;;;4959553;29;20446;-71
2023/05/07 17:50:48;;;;;;;6.73;6.13;;;24.10;99.90;;;;;;4959107;28;20453;-70
2023/05/07 17:53:16;;;;;;;6.87;6.07;;;24.70;99.90;;;;;;4959061;28;20508;-71
2023/05/07 17:55:45;;;;;;;7.70;6.90;;;25.40;99.60;;;;;;4958765;28;20490;-71
2023/05/07 17:58:13;;;;;;;7.23;6.63;;;25.90;98.50;;;;;;4958556;28;20438;-71
2023/05/07 18:00:42;;;;;;;7.07;6.47;;;26.00;97.60;;;;;;4959008;29;20442;-72
2023/05/07 18:03:11;;;;;;;7.60;6.80;;;25.00;97.30;;;;;;4959189;28;20447;-71
2023/05/07 18:05:39;;;;;;;6.47;5.87;;;23.70;97.70;;;;;;4957181;29;20462;-71
2023/05/07 18:08:09;;;;;;;7.03;6.33;;;22.70;98.10;;;;;;4958627;29;20449;-70
2023/05/07 18:10:37;;;;;;;7.03;6.43;;;21.90;98.50;;;;;;4958502;29;20797;-71
2023/05/07 18:13:05;;;;;;;8.07;7.27;;;21.20;98.80;;;;;;4958926;29;20490;-71
2023/05/07 18:15:34;;;;;;;7.47;6.40;;;20.70;99.00;;;;;;4958630;29;20462;-70
2023/05/07 18:18:02;;;;;;;7.40;6.63;;;20.30;99.20;;;;;;4957128;29;20533;-71
2023/05/07 18:20:31;;;;;;;7.17;6.47;;;19.90;99.30;;;;;;4958189;29;20944;-71
2023/05/07 18:22:59;;;;;;;8.03;7.33;;;19.60;99.40;;;;;;4958479;28;20447;-70
2023/05/07 18:25:29;;;;;;;8.37;7.57;;;19.30;99.60;;;;;;4958556;29;20462;-71
2023/05/07 18:27:57;;;;;;;11.50;10.43;;;19.00;99.70;;;;;;4958097;29;20573;-70
2023/05/07 18:30:25;;;;;;;9.97;9.03;;;18.80;99.90;;;;;;4955848;28;20525;-70
2023/05/07 18:32:53;;;;;;;8.00;7.30;;;18.60;99.90;;;;;;4956959;29;20486;-70
2023/05/07 18:35:22;;;;;;;8.20;7.60;;;18.30;99.90;;;;;;4958173;29;20539;-71
2023/05/07 18:37:50;;;;;;;9.10;8.10;;;18.20;99.90;;;;;;4958205;29;20802;-71
2023/05/07 18:40:19;;;;;;;8.50;7.70;;;18.00;99.90;;;;;;4957968;28;20475;-71
2023/05/07 18:42:49;;;;;;;7.60;6.90;;;17.80;99.90;;;;;;4957917;29;20449;-70
2023/05/07 18:45:17;;;;;;;10.60;9.60;;;17.70;99.90;;;;;;4957754;29;20452;-70
2023/05/07 18:47:46;;;;;;;10.53;9.47;;;17.50;99.90;;;;;;4956667;29;20453;-70
2023/05/07 18:50:15;;;;;;;8.00;7.30;;;17.40;99.90;;;;;;4957692;29;20513;-70
2023/05/07 18:52:43;;;;;;;7.83;7.10;;;17.20;99.90;;;;;;4957970;28;20424;-70
2023/05/07 18:55:12;;;;;;;10.00;8.70;;;17.10;99.90;;;;;;4958004;29;20513;-70
2023/05/07 18:57:40;;;;;;;9.53;8.33;;;16.90;99.90;;;;;;4957812;29;20414;-70
2023/05/07 19:00:11;;;;;;;7.93;7.23;;;16.80;99.90;;;;;;4957603;28;20533;-70
2023/05/07 19:02:39;;;;;;;8.57;7.77;;;16.70;99.90;;;;;;4957727;28;20406;-70
2023/05/07 19:05:08;;;;;;;8.20;7.40;;;16.60;99.90;;;;;;4957966;29;20486;-71
2023/05/07 19:07:36;;;;;;;8.80;8.10;;;16.50;99.90;;;;;;4955984;29;20482;-70
2023/05/07 19:10:05;;;;;;;7.30;6.70;;;16.40;99.90;;;;;;4957709;29;20417;-70
2023/05/07 19:12:33;;;;;;;8.17;7.47;;;16.30;99.90;;;;;;4957637;28;20413;-71
2023/05/07 19:15:02;;;;;;;7.93;7.13;;;16.20;99.90;;;;;;4957312;29;20437;-71
2023/05/07 19:17:31;;;;;;;8.00;7.30;;;16.10;99.90;;;;;;4957069;29;20466;-71
2023/05/07 19:19:59;;;;;;;8.50;7.73;;;16.00;99.90;;;;;;4957087;28;20435;-71
2023/05/07 19:22:27;;;;;;;7.33;6.63;;;15.90;99.90;;;;;;4956903;28;20446;-71
2023/05/07 19:24:55;;;;;;;8.00;7.20;;;15.80;99.90;;;;;;4956817;29;20474;-71
2023/05/07 19:27:23;;;;;;;8.57;7.77;;;15.70;99.90;;;;;;4956145;29;20449;-71
2023/05/07 19:29:51;;;;;;;7.63;6.67;;;15.70;99.90;;;;;;4957020;28;20469;-71
2023/05/07 19:32:20;;;;;;;7.93;7.23;;;15.60;99.90;;;;;;4956900;29;20413;-71
2023/05/07 19:34:50;;;;;;;8.03;7.33;;;15.50;99.90;;;;;;4956843;29;20458;-71
2023/05/07 19:37:21;;;;;;;9.57;8.50;;;15.40;99.90;;;;;;4956822;28;20417;-71
2023/05/07 19:39:49;;;;;;;8.47;7.67;;;15.30;99.90;;;;;;4957861;28;20441;-71
2023/05/07 19:42:17;;;;;;;8.30;7.60;;;15.30;99.90;;;;;;4960295;28;20442;-71
2023/05/07 19:44:45;;;;;;;8.73;8.03;;;15.20;99.90;;;;;;4959270;29;20470;-70
2023/05/07 19:47:15;;;;;;;9.83;8.97;;;15.10;99.90;;;;;;4958049;29;20470;-70
2023/05/07 19:49:43;;;;;;;8.40;7.53;;;15.00;99.90;;;;;;4963404;28;20469;-71
2023/05/07 19:52:12;;;;;;;8.60;7.80;;;15.00;99.90;;;;;;4961501;29;20450;-71
2023/05/07 19:54:40;;;;;;;8.93;8.13;;;14.90;99.90;;;;;;4959042;29;20457;-71
2023/05/07 19:57:09;;;;;;;9.47;8.57;;;14.80;99.90;;;;;;4958850;29;20442;-71
2023/05/07 19:59:37;;;;;;;9.23;8.43;;;14.80;99.90;;;;;;4957161;29;20832;-70
2023/05/07 20:02:06;;;;;;;11.17;10.17;;;14.70;99.90;;;;;;4957589;29;20438;-70
2023/05/07 20:04:36;;;;;;;10.07;9.20;;;14.70;99.90;;;;;;4956131;29;20498;-71
2023/05/07 20:07:05;;;;;;;9.70;8.90;;;14.60;99.90;;;;;;4955619;29;21038;-71
2023/05/07 20:09:34;;;;;;;9.43;8.70;;;14.60;99.90;;;;;;4955427;29;20450;-70
2023/05/07 20:12:02;;;;;;;9.30;8.40;;;14.50;99.90;;;;;;4956538;28;20480;-70
2023/05/07 20:14:31;;;;;;;9.57;8.67;;;14.50;99.90;;;;;;4956129;28;20473;-70
2023/05/07 20:16:59;;;;;;;9.53;8.70;;;14.40;99.90;;;;;;4954900;29;20465;-70
2023/05/07 20:19:27;;;;;;;10.97;10.07;;;14.30;99.90;;;;;;4956327;29;21006;-70
2023/05/07 20:21:55;;;;;;;11.40;10.50;;;14.30;99.90;;;;;;4956108;28;20457;-71
2023/05/07 20:24:23;;;;;;;10.37;9.57;;;14.30;99.90;;;;;;4954968;29;20469;-71
2023/05/07 20:26:53;;;;;;;9.33;8.63;;;14.20;99.90;;;;;;4956112;29;20460;-70
2023/05/07 20:29:22;;;;;;;10.17;9.13;;;14.20;99.90;;;;;;4954532;29;20442;-70
2023/05/07 20:31:50;;;;;;;9.77;8.97;;;14.10;99.90;;;;;;4955820;29;20446;-71
2023/05/07 20:34:19;;;;;;;9.50;8.70;;;14.10;99.90;;;;;;4955882;29;20579;-70
2023/05/07 20:36:47;;;;;;;9.97;9.07;;;14.00;99.90;;;;;;4955703;28;20457;-70
2023/05/07 20:39:15;;;;;;;9.43;8.67;;;14.00;99.90;;;;;;4955826;29;20792;-70
2023/05/07 20:41:43;;;;;;;10.00;9.00;;;13.90;99.90;;;;;;4955824;28;20537;-70
2023/05/07 20:44:13;;;;;;;11.77;10.67;;;13.90;99.90;;;;;;4955428;29;20466;-71
2023/05/07 20:46:41;;;;;;;10.47;9.67;;;13.90;99.90;;;;;;4955541;28;20501;-70
2023/05/07 20:49:09;;;;;;;9.67;8.77;;;13.80;99.90;;;;;;4955516;28;20506;-70
2023/05/07 20:51:37;;;;;;;12.00;11.00;;;13.70;99.90;;;;;;4955573;29;20438;-70
2023/05/07 20:54:07;;;;;;;11.17;10.13;;;13.70;99.90;;;;;;4955033;28;20573;-70
2023/05/07 20:56:35;;;;;;;9.57;8.77;;;13.60;99.90;;;;;;4955581;28;20477;-70
2023/05/07 20:59:03;;;;;;;9.20;8.50;;;13.60;99.90;;;;;;4955368;29;20447;-70
2023/05/07 21:01:33;;;;;;;9.83;8.93;;;13.60;99.90;;;;;;4955346;29;20465;-70
2023/05/07 21:04:01;;;;;;;9.43;8.47;;;13.50;99.90;;;;;;4955312;29;20481;-70
2023/05/07 21:06:29;;;;;;;8.77;7.97;;;13.50;99.90;;;;;;4955508;29;20497;-70
2023/05/07 21:08:57;;;;;;;8.90;8.10;;;13.40;99.90;;;;;;4953949;29;20479;-70
2023/05/07 21:11:26;;;;;;;9.47;8.67;;;13.40;99.90;;;;;;4955147;29;20439;-71
2023/05/07 21:13:54;;;;;;;9.67;8.77;;;13.40;99.90;;;;;;4955428;29;20446;-70
2023/05/07 21:16:22;;;;;;;9.33;8.53;;;13.30;99.90;;;;;;4955165;29;20443;-70
2023/05/07 21:18:51;;;;;;;10.53;9.73;;;13.30;99.90;;;;;;4955085;29;20820;-70
2023/05/07 21:21:19;;;;;;;9.53;8.73;;;13.20;99.90;;;;;;4955167;29;20438;-70
2023/05/07 21:23:48;;;;;;;9.20;8.40;;;13.20;99.90;;;;;;4955074;29;20455;-71
2023/05/07 21:26:18;;;;;;;9.73;8.93;;;13.20;99.90;;;;;;4955133;29;20515;-70
2023/05/07 21:28:46;;;;;;;9.73;8.90;;;13.20;99.90;;;;;;4955336;29;20882;-71
2023/05/07 21:31:14;;;;;;;11.20;10.30;;;13.10;99.90;;;;;;4955186;29;20438;-71
2023/05/07 21:33:43;;;;;;;9.10;8.20;;;13.10;99.90;;;;;;4955021;29;20835;-70
2023/05/07 21:36:13;;;;;;;9.37;8.47;;;13.10;99.90;;;;;;4955451;28;20466;-71
2023/05/07 21:38:41;;;;;;;9.70;8.90;;;13.00;99.90;;;;;;4953992;29;20438;-70
2023/05/07 21:41:10;;;;;;;9.50;8.70;;;13.00;99.90;;;;;;4955275;29;21002;-70
2023/05/07 21:43:38;;;;;;;9.40;8.50;;;12.90;99.90;;;;;;4955197;29;20887;-70
2023/05/07 21:46:07;;;;;;;9.60;8.70;;;12.90;99.90;;;;;;4955481;28;20454;-70
2023/05/07 21:48:35;;;;;;;9.30;8.50;;;12.90;99.90;;;;;;4955789;29;21018;-70
2023/05/07 21:51:05;;;;;;;9.40;8.60;;;12.80;99.90;;;;;;4955320;29;20434;-70
2023/05/07 21:53:35;;;;;;;9.20;8.40;;;12.80;99.90;;;;;;4955464;29;20475;-70
2023/05/07 21:56:03;;;;;;;9.87;9.00;;;12.80;99.90;;;;;;4955347;29;21008;-70
2023/05/07 21:58:32;;;;;;;8.97;8.17;;;12.80;99.90;;;;;;4955250;29;20475;-70
2023/05/07 22:01:00;;;;;;;9.00;8.20;;;12.70;99.90;;;;;;4955415;28;20537;-70
2023/05/07 22:03:28;;;;;;;9.60;8.80;;;12.70;99.90;;;;;;4955680;29;20494;-70
2023/05/07 22:05:56;;;;;;;9.17;8.27;;;12.60;99.90;;;;;;4957459;28;20454;-70
2023/05/07 22:08:24;;;;;;;9.23;8.43;;;12.60;99.90;;;;;;4959117;29;20925;-71
2023/05/07 22:10:54;;;;;;;9.40;8.60;;;12.60;99.90;;;;;;4959264;28;20439;-70
2023/05/07 22:13:22;;;;;;;9.80;8.90;;;12.60;99.90;;;;;;4957847;29;20474;-70
2023/05/07 22:15:50;;;;;;;9.67;8.87;;;12.60;99.90;;;;;;4957673;29;20501;-70
2023/05/07 22:18:25;;;;;;;8.77;7.97;;;12.50;99.90;;;;;;4959511;29;20469;-71
2023/05/07 22:20:53;;;;;;;9.93;9.03;;;12.50;99.90;;;;;;4959083;29;20472;-70
2023/05/07 22:23:21;;;;;;;9.80;9.00;;;12.50;99.90;;;;;;4958844;29;20454;-70
2023/05/07 22:25:49;;;;;;;9.40;8.60;;;12.50;99.90;;;;;;4958934;28;20457;-70
2023/05/07 22:28:20;;;;;;;8.17;7.37;;;12.50;99.90;;;;;;4958955;29;20498;-69
2023/05/07 22:30:48;;;;;;;9.20;8.40;;;12.40;99.90;;;;;;4957956;29;20442;-70
2023/05/07 22:33:16;;;;;;;9.63;8.80;;;12.40;99.90;;;;;;4958907;29;20439;-70
2023/05/07 22:35:44;;;;;;;9.00;8.20;;;12.40;99.90;;;;;;4958943;29;20459;-70
2023/05/07 22:38:12;;;;;;;8.87;8.07;;;12.30;99.90;;;;;;4958747;29;20446;-70
2023/05/07 22:40:40;;;;;;;10.37;9.27;;;12.30;99.90;;;;;;4958771;29;20446;-70
2023/05/07 22:43:08;;;;;;;9.70;8.80;;;12.30;99.90;;;;;;4958673;29;20447;-70
2023/05/07 22:45:37;;;;;;;9.50;8.70;;;12.20;99.90;;;;;;4958626;29;20526;-70
2023/05/07 22:48:06;;;;;;;9.03;8.33;;;12.20;99.90;;;;;;4958447;29;20450;-70
2023/05/07 22:50:37;;;;;;;10.00;9.17;;;12.20;99.90;;;;;;4958778;28;20435;-70
2023/05/07 22:53:05;;;;;;;9.60;8.70;;;12.20;99.90;;;;;;4958546;29;20441;-70
2023/05/07 22:55:33;;;;;;;9.03;8.33;;;12.10;99.90;;;;;;4958288;28;21074;-70
2023/05/07 22:58:01;;;;;;;9.40;8.57;;;12.10;99.90;;;;;;4958332;29;20446;-70
2023/05/07 23:00:29;;;;;;;10.10;9.20;;;12.10;99.90;;;;;;4958657;29;20439;-71
2023/05/07 23:02:59;;;;;;;10.00;9.20;;;12.10;99.90;;;;;;4958242;28;20825;-70
2023/05/07 23:05:27;;;;;;;9.47;8.60;;;12.00;99.90;;;;;;4958154;28;20967;-71
2023/05/07 23:07:55;;;;;;;9.27;8.47;;;12.00;99.90;;;;;;4958333;29;20435;-70
2023/05/07 23:10:23;;;;;;;9.70;8.80;;;11.90;99.90;;;;;;4958136;29;20478;-71
2023/05/07 23:12:52;;;;;;;8.67;7.97;;;11.90;99.90;;;;;;4958020;29;20449;-70
2023/05/07 23:15:21;;;;;;;9.57;8.77;;;11.90;99.90;;;;;;4958079;29;20463;-70
2023/05/07 23:17:49;;;;;;;9.93;9.03;;;11.90;99.90;;;;;;4957623;28;20450;-70
2023/05/07 23:20:18;;;;;;;9.13;8.33;;;11.80;99.90;;;;;;4957902;28;20470;-71
2023/05/07 23:22:46;;;;;;;9.57;8.77;;;11.80;99.90;;;;;;4961730;28;20863;-71
2023/05/07 23:25:14;;;;;;;9.33;8.53;;;11.80;99.90;;;;;;4959500;29;20466;-70
2023/05/07 23:27:42;;;;;;;9.80;9.00;;;11.80;99.90;;;;;;4956628;29;20450;-71
2023/05/07 23:30:12;;;;;;;9.40;8.50;;;11.70;99.90;;;;;;4957451;29;20466;-70
2023/05/07 23:32:40;;;;;;;9.70;8.90;;;11.70;99.90;;;;;;4957647;29;20836;-70
2023/05/07 23:35:09;;;;;;;9.60;8.80;;;11.70;99.90;;;;;;4957393;28;20494;-70
2023/05/07 23:37:39;;;;;;;9.73;8.90;;;11.70;99.90;;;;;;4955795;29;20960;-70
2023/05/07 23:40:08;;;;;;;9.60;8.90;;;11.60;99.90;;;;;;4955744;29;20451;-70
2023/05/07 23:42:36;;;;;;;10.20;9.40;;;11.60;99.90;;;;;;4957376;28;20794;-71
2023/05/07 23:45:05;;;;;;;9.00;8.30;;;11.50;99.90;;;;;;4957162;29;20514;-71
2023/05/07 23:47:33;;;;;;;10.13;9.33;;;11.50;99.90;;;;;;4957096;29;20443;-71
2023/05/07 23:50:02;;;;;;;10.53;9.63;;;11.50;99.90;;;;;;4957046;28;21030;-70
2023/05/07 23:52:30;;;;;;;9.77;8.93;;;11.50;99.90;;;;;;4956949;29;20438;-70
2023/05/07 23:54:59;;;;;;;9.70;8.90;;;11.40;99.90;;;;;;4956797;29;20471;-70
2023/05/07 23:57:27;;;;;;;10.13;9.00;;;11.40;99.90;;;;;;4956888;28;20537;-71
2023/05/07 23:59:55;;;;;;;9.63;8.83;;;11.40;99.90;;;;;;4957064;29;20447;-70
